Time;durP1;ratioP1;P1;durP2;ratioP2;P2;SDS_P1;SDS_P2;PMS_P1;PMS_P2;Temp;Humidity;BMP_temperature;BMP_pressure;BME280_temperature;BME280_humidity;BME280_pressure;Samples;Min_cycle;Max_cycle;Signal;HPM_P1;HPM_P2
2021/09/04 00:00:46;;;;;;;10.25;7.82;;;;;;;21.69;60.87;101870.44;5091123;28;20085;-69
2021/09/04 00:03:11;;;;;;;10.98;7.40;;;;;;;21.68;60.58;101871.44;5091848;28;20028;-69
2021/09/04 00:05:37;;;;;;;10.68;7.90;;;;;;;21.68;61.02;101869.59;5091768;28;20036;-69
2021/09/04 00:08:03;;;;;;;9.93;7.70;;;;;;;21.69;60.71;101865.09;5073657;28;20047;-69
2021/09/04 00:10:29;;;;;;;10.40;7.82;;;;;;;21.68;60.92;101872.28;5092543;28;20043;-69
2021/09/04 00:12:54;;;;;;;9.63;7.85;;;;;;;21.68;60.92;101877.63;5073214;28;20055;-69
2021/09/04 00:15:20;;;;;;;12.10;8.23;;;;;;;21.68;60.76;101863.44;5091457;28;20054;-69
2021/09/04 00:17:45;;;;;;;10.55;7.80;;;;;;;21.67;60.92;101870.63;5091463;28;20054;-69
2021/09/04 00:20:12;;;;;;;9.73;7.28;;;;;;;21.68;60.37;101858.09;5091226;28;20036;-69
2021/09/04 00:22:37;;;;;;;11.55;8.70;;;;;;;21.66;60.66;101850.28;5091306;28;20052;-69
2021/09/04 00:25:03;;;;;;;9.43;7.18;;;;;;;21.67;60.35;101851.09;5090958;28;20055;-69
2021/09/04 00:27:29;;;;;;;10.98;7.78;;;;;;;21.67;60.66;101853.78;5090944;28;20108;-69
2021/09/04 00:29:54;;;;;;;11.63;8.43;;;;;;;21.67;60.27;101857.28;5090994;28;20089;-69
2021/09/04 00:32:20;;;;;;;11.48;7.97;;;;;;;21.66;60.25;101844.94;5073447;28;20420;-69
2021/09/04 00:34:48;;;;;;;12.25;7.60;;;;;;;21.66;60.62;101846.78;5091095;28;20093;-69
2021/09/04 00:37:14;;;;;;;12.93;8.00;;;;;;;21.66;60.73;101858.28;5090460;28;20085;-69
2021/09/04 00:39:39;;;;;;;11.63;8.15;;;;;;;21.66;60.56;101839.59;5090859;28;20044;-69
2021/09/04 00:42:05;;;;;;;12.07;7.70;;;;;;;21.65;60.68;101845.94;5055591;28;20476;-69
2021/09/04 00:44:31;;;;;;;11.05;7.80;;;;;;;21.66;60.51;101844.09;5056207;28;20376;-69
2021/09/04 00:47:03;;;;;;;9.80;7.03;;;;;;;21.65;60.36;101839.78;5056056;28;20475;-69
2021/09/04 00:49:30;;;;;;;10.50;7.22;;;;;;;21.66;60.62;101836.94;5077020;28;20105;-69
2021/09/04 00:51:56;;;;;;;9.85;7.32;;;;;;;21.65;60.53;101832.59;5072060;28;20046;-69
2021/09/04 00:54:21;;;;;;;10.02;7.13;;;;;;;21.64;60.47;101828.28;5090912;28;20107;-69
2021/09/04 00:56:47;;;;;;;11.20;7.45;;;;;;;21.65;60.58;101832.59;5089986;28;20032;-69
2021/09/04 00:59:13;;;;;;;10.05;7.43;;;;;;;21.64;60.59;101822.94;5056177;28;20085;-69
2021/09/04 01:01:38;;;;;;;11.07;7.25;;;;;;;21.65;60.48;101813.91;5089989;28;20429;-69
2021/09/04 01:04:04;;;;;;;9.73;7.07;;;;;;;21.65;60.58;101818.41;5072363;28;20036;-69
2021/09/04 01:06:29;;;;;;;10.38;7.80;;;;;;;21.64;60.84;101812.25;5090176;28;20032;-69
2021/09/04 01:08:55;;;;;;;9.57;7.07;;;;;;;21.65;60.54;101823.75;5090154;28;20109;-69
2021/09/04 01:11:21;;;;;;;12.30;8.15;;;;;;;21.64;60.88;101812.25;5072030;28;20139;-69
2021/09/04 01:13:47;;;;;;;9.35;7.30;;;;;;;21.65;60.56;101813.09;5072394;28;20443;-69
2021/09/04 01:16:12;;;;;;;9.77;7.50;;;;;;;21.64;60.49;101809.59;5090760;28;20050;-69
2021/09/04 01:18:38;;;;;;;9.82;7.45;;;;;;;21.65;60.75;101807.75;5055762;28;20135;-69
2021/09/04 01:21:05;;;;;;;11.80;7.30;;;;;;;21.66;60.41;101814.72;5089439;28;20532;-69
2021/09/04 01:23:30;;;;;;;9.60;7.15;;;;;;;21.65;60.72;101807.75;5090137;28;20097;-69
2021/09/04 01:25:56;;;;;;;10.65;7.45;;;;;;;21.64;60.52;101806.91;5071737;28;20027;-69
2021/09/04 01:28:22;;;;;;;8.98;7.10;;;;;;;21.64;60.40;101806.09;5089780;28;20034;-69
2021/09/04 01:30:49;;;;;;;10.40;7.32;;;;;;;21.66;60.68;101806.72;5071712;28;20039;-69
2021/09/04 01:33:15;;;;;;;10.15;7.40;;;;;;;21.65;60.61;101802.41;5072519;28;20024;-69
2021/09/04 01:35:41;;;;;;;9.57;6.60;;;;;;;21.65;60.56;101797.88;5071437;28;20441;-69
2021/09/04 01:38:07;;;;;;;10.70;7.35;;;;;;;21.66;60.46;101804.06;5089640;28;20039;-69
2021/09/04 01:40:32;;;;;;;11.30;7.15;;;;;;;21.65;60.66;101799.72;5089553;28;20498;-69
2021/09/04 01:42:58;;;;;;;9.55;7.25;;;;;;;21.65;60.77;101797.06;5054577;28;20082;-69
2021/09/04 01:45:24;;;;;;;10.57;7.75;;;;;;;21.65;60.33;101791.72;5089452;28;20032;-69
2021/09/04 01:47:49;;;;;;;11.93;7.70;;;;;;;21.64;60.55;101785.56;5090074;28;20490;-69
2021/09/04 01:50:15;;;;;;;9.57;6.93;;;;;;;21.64;60.36;101788.22;5055279;28;20528;-68
2021/09/04 01:52:43;;;;;;;10.93;7.35;;;;;;;21.63;60.62;101783.91;5070910;28;20070;-69
2021/09/04 01:55:11;;;;;;;9.57;7.47;;;;;;;21.64;60.49;101790.88;5089498;28;20140;-69
2021/09/04 01:57:37;;;;;;;10.10;7.20;;;;;;;21.63;60.57;101791.91;5071416;28;20118;-69
2021/09/04 02:00:05;;;;;;;9.55;6.57;;;;;;;21.63;60.62;101785.75;5089680;28;20119;-69
2021/09/04 02:02:31;;;;;;;8.88;7.18;;;;;;;21.63;60.37;101783.91;5066695;28;20052;-69
2021/09/04 02:04:56;;;;;;;9.05;6.53;;;;;;;21.63;60.48;101781.22;5071045;28;20036;-69
2021/09/04 02:07:22;;;;;;;9.98;7.22;;;;;;;21.63;60.33;101785.75;5054677;28;20070;-69
2021/09/04 02:09:47;;;;;;;9.95;7.30;;;;;;;21.62;60.53;101782.25;5070659;28;20702;-69
2021/09/04 02:12:13;;;;;;;10.38;7.43;;;;;;;21.63;60.71;101783.06;5054258;28;20042;-69
2021/09/04 02:14:38;;;;;;;9.93;7.03;;;;;;;21.63;60.39;101777.72;5090071;28;20471;-69
2021/09/04 02:17:04;;;;;;;10.00;7.65;;;;;;;21.62;60.25;101782.25;5089108;28;20036;-69
2021/09/04 02:19:29;;;;;;;10.25;7.28;;;;;;;21.62;60.17;101776.03;5071451;28;20081;-69
2021/09/04 02:21:55;;;;;;;12.10;7.68;;;;;;;21.62;60.36;101776.03;5088462;28;20548;-69
2021/09/04 02:24:20;;;;;;;10.35;6.90;;;;;;;21.62;60.50;101773.38;5089454;28;20032;-69
2021/09/04 02:26:46;;;;;;;9.63;7.63;;;;;;;21.62;60.29;101779.56;5070554;28;20032;-69
2021/09/04 02:29:11;;;;;;;10.25;7.72;;;;;;;21.61;60.24;101772.53;5071331;28;20028;-69
2021/09/04 02:31:37;;;;;;;10.60;7.25;;;;;;;21.62;60.21;101776.03;5071121;28;20035;-69
2021/09/04 02:34:02;;;;;;;9.73;6.93;;;;;;;21.61;60.21;101767.22;5053974;28;20032;-69
2021/09/04 02:36:28;;;;;;;10.40;7.45;;;;;;;21.62;60.40;101765.38;5070692;28;20036;-69
2021/09/04 02:38:54;;;;;;;10.27;7.40;;;;;;;21.61;60.11;101769.06;5070691;28;20036;-69
2021/09/04 02:41:20;;;;;;;11.65;7.10;;;;;;;21.61;60.39;101763.72;5088954;28;20140;-69
2021/09/04 02:43:45;;;;;;;11.10;7.43;;;;;;;21.61;60.48;101767.22;5087328;28;20411;-69
2021/09/04 02:46:11;;;;;;;10.55;7.35;;;;;;;21.61;60.54;101758.38;5088994;28;20032;-69
2021/09/04 02:48:37;;;;;;;10.13;7.60;;;;;;;21.60;60.43;101756.72;5088870;28;20032;-69
2021/09/04 02:51:03;;;;;;;9.80;7.20;;;;;;;21.60;60.30;101756.72;5088297;28;20032;-69
2021/09/04 02:53:28;;;;;;;10.70;7.55;;;;;;;21.60;60.38;101752.19;5070922;28;20127;-69
2021/09/04 02:55:54;;;;;;;10.13;7.15;;;;;;;21.60;60.12;101746.88;5088114;28;20082;-69
2021/09/04 02:58:19;;;;;;;10.65;7.05;;;;;;;21.61;60.40;101747.69;5088646;28;20703;-69
2021/09/04 03:00:45;;;;;;;10.05;7.10;;;;;;;21.61;60.31;101750.34;5070290;28;20085;-69
2021/09/04 03:03:11;;;;;;;9.48;6.95;;;;;;;21.61;60.21;101742.34;5088634;28;20050;-69
2021/09/04 03:05:36;;;;;;;10.02;7.90;;;;;;;21.60;60.17;101738.03;5088757;28;20063;-69
2021/09/04 03:08:03;;;;;;;11.02;7.22;;;;;;;21.61;60.40;101731.66;5070427;28;20028;-69
2021/09/04 03:10:29;;;;;;;11.10;7.40;;;;;;;21.60;60.29;101733.50;5088758;28;20043;-69
2021/09/04 03:12:55;;;;;;;12.07;7.90;;;;;;;21.61;60.21;101729.00;5088929;28;20067;-69
2021/09/04 03:15:21;;;;;;;9.02;6.85;;;;;;;21.60;60.40;101728.16;5058000;28;20491;-69
2021/09/04 03:17:46;;;;;;;9.88;7.10;;;;;;;21.60;60.53;101719.34;5074505;28;20057;-69
2021/09/04 03:20:12;;;;;;;9.85;7.78;;;;;;;21.61;60.42;101721.00;5092379;28;20113;-69
2021/09/04 03:22:38;;;;;;;9.52;7.13;;;;;;;21.61;60.26;101719.16;5074054;28;20471;-69
2021/09/04 03:25:04;;;;;;;11.38;7.15;;;;;;;21.61;60.12;101723.66;5092292;28;20031;-69
2021/09/04 03:27:30;;;;;;;10.23;7.38;;;;;;;21.61;60.50;101712.97;5092213;28;20036;-69
2021/09/04 03:29:56;;;;;;;9.30;6.90;;;;;;;21.61;60.12;101718.31;5074365;28;20040;-69
2021/09/04 03:32:21;;;;;;;10.07;7.13;;;;;;;21.61;60.39;101723.66;5092098;28;20101;-69
2021/09/04 03:34:47;;;;;;;10.07;7.50;;;;;;;21.60;60.60;101724.69;5092677;28;20059;-69
2021/09/04 03:37:12;;;;;;;10.48;7.20;;;;;;;21.60;60.40;101719.34;5091803;28;20030;-69
2021/09/04 03:39:38;;;;;;;11.65;7.43;;;;;;;21.60;60.16;101725.50;5092055;28;20122;-69
2021/09/04 03:42:03;;;;;;;10.88;7.22;;;;;;;21.61;60.24;101721.00;5091441;28;20043;-69
2021/09/04 03:44:29;;;;;;;10.77;7.78;;;;;;;21.60;60.36;101719.34;5092836;28;20532;-69
2021/09/04 03:46:55;;;;;;;11.00;7.60;;;;;;;21.60;60.31;101725.50;5073541;28;20043;-69
2021/09/04 03:49:20;;;;;;;10.10;7.38;;;;;;;21.61;60.19;101721.00;5073693;28;20498;-69
2021/09/04 03:51:46;;;;;;;11.20;7.13;;;;;;;21.60;60.49;101722.00;5091794;28;20036;-69
2021/09/04 03:54:11;;;;;;;9.40;6.68;;;;;;;21.60;60.27;101714.81;5091509;28;20143;-69
2021/09/04 03:56:36;;;;;;;9.63;6.97;;;;;;;21.60;60.48;101716.66;5073489;28;20032;-69
2021/09/04 03:59:02;;;;;;;11.18;8.02;;;;;;;21.60;60.25;101717.50;5084863;28;20043;-69
2021/09/04 04:01:27;;;;;;;10.48;7.53;;;;;;;21.60;60.25;101712.16;5091977;28;20032;-69
2021/09/04 04:03:53;;;;;;;10.88;7.60;;;;;;;21.60;60.37;101708.66;5092122;28;20036;-69
2021/09/04 04:06:18;;;;;;;9.73;7.10;;;;;;;21.60;60.19;101700.66;5091108;28;20380;-69
2021/09/04 04:08:44;;;;;;;11.07;7.15;;;;;;;21.60;60.45;101708.66;5073687;28;20372;-69
2021/09/04 04:11:11;;;;;;;9.55;7.00;;;;;;;21.59;60.30;101713.16;5073225;28;20028;-69
2021/09/04 04:13:37;;;;;;;10.57;7.68;;;;;;;21.60;60.54;101709.47;5091328;28;20099;-69
2021/09/04 04:16:04;;;;;;;11.02;7.40;;;;;;;21.59;60.22;101707.00;5091685;28;20464;-69
2021/09/04 04:18:29;;;;;;;11.07;7.53;;;;;;;21.60;60.14;101720.16;5072828;28;20457;-69
2021/09/04 04:20:55;;;;;;;11.32;7.43;;;;;;;21.60;60.57;101714.81;5072931;28;20040;-69
2021/09/04 04:23:20;;;;;;;10.63;7.75;;;;;;;21.59;60.20;101707.84;5073257;28;20186;-68
2021/09/04 04:25:46;;;;;;;10.32;7.82;;;;;;;21.60;60.29;101704.13;5090613;28;20035;-69
2021/09/04 04:28:11;;;;;;;10.60;7.35;;;;;;;21.58;60.20;101700.84;5072431;28;20064;-69
2021/09/04 04:30:37;;;;;;;10.85;7.72;;;;;;;21.58;60.45;101703.50;5091692;28;20093;-69
2021/09/04 04:33:02;;;;;;;11.85;7.45;;;;;;;21.59;60.27;101701.66;5073038;28;20036;-69
2021/09/04 04:35:28;;;;;;;9.52;7.50;;;;;;;21.58;60.20;101700.84;5090766;28;20426;-69
2021/09/04 04:37:53;;;;;;;10.45;7.47;;;;;;;21.58;60.33;101700.84;5091725;28;20556;-69
2021/09/04 04:40:18;;;;;;;9.90;7.38;;;;;;;21.58;60.25;101706.19;5072368;28;20411;-69
2021/09/04 04:42:44;;;;;;;9.65;7.35;;;;;;;21.59;60.14;101707.84;5072543;28;20056;-69
2021/09/04 04:45:10;;;;;;;10.98;7.38;;;;;;;21.59;60.07;101701.66;5073105;28;20456;-69
2021/09/04 04:47:36;;;;;;;9.45;6.80;;;;;;;21.59;60.46;101693.66;5090574;28;20078;-69
2021/09/04 04:50:03;;;;;;;9.80;6.97;;;;;;;21.58;60.01;101694.66;5090941;28;20043;-69
2021/09/04 04:52:28;;;;;;;9.70;7.20;;;;;;;21.58;60.54;101689.34;5090459;28;20067;-69
2021/09/04 04:54:54;;;;;;;9.32;7.20;;;;;;;21.58;60.31;101690.16;5056260;28;20060;-69
2021/09/04 04:57:19;;;;;;;11.23;7.95;;;;;;;21.57;60.09;101687.69;5071868;28;20048;-69
2021/09/04 04:59:44;;;;;;;10.20;7.13;;;;;;;21.58;60.06;101692.81;5073003;28;20386;-69
2021/09/04 05:02:10;;;;;;;9.65;7.90;;;;;;;21.58;60.18;101694.66;5072190;28;20040;-69
2021/09/04 05:04:35;;;;;;;11.25;7.65;;;;;;;21.57;60.33;101693.03;5090627;28;20024;-69
2021/09/04 05:07:01;;;;;;;9.07;6.65;;;;;;;21.57;60.50;101688.50;5071447;28;20043;-69
2021/09/04 05:09:26;;;;;;;9.90;7.03;;;;;;;21.57;60.16;101685.84;5055680;28;20035;-69
2021/09/04 05:11:52;;;;;;;9.77;6.95;;;;;;;21.58;60.46;101681.31;5056981;28;20037;-69
2021/09/04 05:14:17;;;;;;;9.95;7.00;;;;;;;21.57;60.30;101685.84;5083134;28;20069;-69
2021/09/04 05:16:43;;;;;;;9.63;6.97;;;;;;;21.58;60.07;101686.66;5072555;28;20031;-69
2021/09/04 05:19:08;;;;;;;11.10;7.47;;;;;;;21.57;60.08;101680.50;5072217;28;20447;-69
2021/09/04 05:21:34;;;;;;;9.80;7.85;;;;;;;21.56;60.37;101670.84;5089885;28;20458;-69
2021/09/04 05:23:59;;;;;;;10.57;7.60;;;;;;;21.57;60.35;101677.00;5072050;28;20062;-69
2021/09/04 05:26:25;;;;;;;10.02;7.05;;;;;;;21.57;59.99;101677.00;5090258;28;20034;-69
2021/09/04 05:28:51;;;;;;;9.95;6.88;;;;;;;21.57;60.39;101674.34;5055366;28;20040;-69
2021/09/04 05:31:16;;;;;;;10.27;7.22;;;;;;;21.56;60.03;101668.16;5071641;28;20036;-69
2021/09/04 05:33:41;;;;;;;9.35;6.88;;;;;;;21.57;60.32;101671.66;5072083;28;20467;-69
2021/09/04 05:36:08;;;;;;;9.70;7.43;;;;;;;21.57;60.33;101674.34;5089521;28;20489;-69
2021/09/04 05:38:36;;;;;;;9.38;7.35;;;;;;;21.58;60.28;101673.31;5089863;28;20118;-69
2021/09/04 05:41:03;;;;;;;9.77;7.30;;;;;;;21.56;60.20;101670.84;5089836;28;20044;-69
2021/09/04 05:43:29;;;;;;;9.93;7.15;;;;;;;21.57;60.35;101672.47;5089936;28;20105;-69
2021/09/04 05:45:54;;;;;;;9.48;6.80;;;;;;;21.57;60.01;101671.66;5089922;28;20042;-69
2021/09/04 05:48:20;;;;;;;9.32;7.07;;;;;;;21.56;59.91;101670.84;5089687;28;20056;-69
2021/09/04 05:50:45;;;;;;;10.30;7.38;;;;;;;21.56;60.04;101675.34;5089503;28;20032;-69
2021/09/04 05:53:10;;;;;;;10.80;7.18;;;;;;;21.56;60.05;101675.34;5089642;28;20085;-69
2021/09/04 05:55:36;;;;;;;9.60;6.80;;;;;;;21.56;60.01;101670.00;5089537;28;20035;-69
2021/09/04 05:58:02;;;;;;;10.05;7.20;;;;;;;21.56;60.02;101678.00;5054485;28;20384;-69
2021/09/04 06:00:27;;;;;;;10.07;7.45;;;;;;;21.56;59.91;101678.84;5070794;28;20056;-69
2021/09/04 06:02:53;;;;;;;9.55;6.60;;;;;;;21.57;60.13;101682.34;5071731;28;20027;-69
2021/09/04 06:05:18;;;;;;;8.98;6.78;;;;;;;21.56;60.21;101672.69;5071012;28;20793;-69
2021/09/04 06:07:43;;;;;;;9.30;6.85;;;;;;;21.56;60.01;101673.50;5087470;28;20112;-68
2021/09/04 06:10:09;;;;;;;11.50;7.20;;;;;;;21.56;59.88;101673.50;5054194;28;20036;-70
2021/09/04 06:12:35;;;;;;;9.52;7.00;;;;;;;21.56;60.25;101676.19;5070485;28;20438;-70
2021/09/04 06:15:00;;;;;;;9.40;6.93;;;;;;;21.57;60.24;101679.66;5089401;28;20453;-68
2021/09/04 06:17:26;;;;;;;11.10;7.85;;;;;;;21.56;60.39;101680.69;5088488;28;20024;-69
2021/09/04 06:19:52;;;;;;;9.40;6.82;;;;;;;21.56;60.20;101681.50;5088837;28;20123;-68
2021/09/04 06:22:18;;;;;;;10.95;7.35;;;;;;;21.57;60.21;101679.66;5087987;28;20439;-69
2021/09/04 06:24:43;;;;;;;10.40;7.32;;;;;;;21.57;60.17;101682.34;5070574;28;20028;-69
2021/09/04 06:27:09;;;;;;;11.10;7.55;;;;;;;21.57;60.51;101674.34;5088751;28;20035;-69
2021/09/04 06:29:34;;;;;;;10.27;7.32;;;;;;;21.57;60.50;101677.81;5089050;28;20035;-69
2021/09/04 06:32:00;;;;;;;10.15;7.10;;;;;;;21.57;60.50;101682.34;5071065;28;20470;-69
2021/09/04 06:34:25;;;;;;;7.95;6.07;;;;;;;21.57;60.75;101682.34;5054177;28;20052;-69
2021/09/04 06:36:50;;;;;;;11.18;6.13;;;;;;;21.57;61.12;101675.16;5088170;28;20111;-69
2021/09/04 06:39:16;;;;;;;8.60;6.40;;;;;;;21.59;60.93;101682.97;5070790;28;20471;-69
2021/09/04 06:41:41;;;;;;;9.02;6.40;;;;;;;21.58;61.37;101682.16;5088581;28;20056;-69
2021/09/04 06:44:07;;;;;;;8.55;6.03;;;;;;;21.58;61.50;101684.81;5070617;28;20164;-69
2021/09/04 06:46:32;;;;;;;9.93;6.85;;;;;;;21.58;61.38;101684.81;5088531;28;20494;-68
2021/09/04 06:48:59;;;;;;;14.00;7.53;;;;;;;21.58;61.73;101684.81;5088215;28;20024;-68
2021/09/04 06:51:25;;;;;;;12.35;7.47;;;;;;;21.59;61.43;101693.66;5095669;28;20141;-74
2021/09/04 06:53:51;;;;;;;10.27;6.78;;;;;;;21.60;61.61;101692.63;5095945;28;20111;-71
2021/09/04 06:56:17;;;;;;;12.02;7.47;;;;;;;21.60;61.70;101692.63;5095765;28;20058;-72
2021/09/04 06:58:42;;;;;;;12.63;7.20;;;;;;;21.59;61.70;101697.16;5095383;28;20058;-71
2021/09/04 07:01:08;;;;;;;12.55;8.27;;;;;;;21.61;62.05;101696.97;5094646;28;20093;-71
2021/09/04 07:03:33;;;;;;;14.52;7.55;;;;;;;21.60;62.09;101697.97;5095619;28;20024;-68
2021/09/04 07:05:59;;;;;;;12.82;7.80;;;;;;;21.59;61.98;101697.16;5095425;28;20035;-66
2021/09/04 07:08:24;;;;;;;14.95;8.30;;;;;;;21.61;61.65;101702.31;5095006;28;20115;-66
2021/09/04 07:10:50;;;;;;;14.93;7.43;;;;;;;21.60;62.07;101701.47;5095849;28;20051;-66
2021/09/04 07:13:15;;;;;;;14.80;8.00;;;;;;;21.61;62.18;101704.97;5076746;28;20471;-67
2021/09/04 07:15:41;;;;;;;14.02;7.85;;;;;;;21.61;62.12;101712.97;5077507;28;20043;-67
2021/09/04 07:18:06;;;;;;;14.45;7.22;;;;;;;21.62;62.06;101707.47;5095321;28;20432;-66
2021/09/04 07:20:32;;;;;;;14.05;8.07;;;;;;;21.61;61.95;101710.31;5095330;28;20471;-67
2021/09/04 07:22:57;;;;;;;18.58;8.27;;;;;;;21.61;62.13;101719.16;5095681;28;20055;-67
2021/09/04 07:25:23;;;;;;;14.65;8.45;;;;;;;21.61;61.90;101711.13;5094725;28;20052;-72
2021/09/04 07:27:48;;;;;;;12.48;7.45;;;;;;;21.62;61.87;101722.63;5073288;28;20544;-67
2021/09/04 07:30:16;;;;;;;13.35;7.95;;;;;;;21.62;62.25;101727.97;5092160;28;20390;-68
2021/09/04 07:32:42;;;;;;;16.05;7.43;;;;;;;21.63;62.18;101713.66;5091337;28;20089;-66
2021/09/04 07:35:08;;;;;;;22.52;8.65;;;;;;;21.62;62.06;101717.31;5073531;28;20058;-70
2021/09/04 07:37:33;;;;;;;15.88;8.70;;;;;;;21.62;61.86;101707.47;5071319;28;20044;-68
2021/09/04 07:39:59;;;;;;;14.48;7.68;;;;;;;21.63;62.13;101713.66;5090251;28;20164;-70
2021/09/04 07:42:25;;;;;;;18.63;8.35;;;;;;;21.62;62.42;101712.81;5071809;28;20159;-68
2021/09/04 07:44:50;;;;;;;16.00;8.77;;;;;;;21.62;61.78;101715.50;5090970;28;20332;-68
2021/09/04 07:47:16;;;;;;;17.63;8.82;;;;;;;21.62;62.42;101720.84;5090346;28;20104;-67
2021/09/04 07:49:41;;;;;;;20.10;8.57;;;;;;;21.62;62.23;101717.31;5090450;28;20219;-66
2021/09/04 07:52:07;;;;;;;14.68;8.02;;;;;;;21.63;62.25;101717.16;5073297;28;20043;-66
2021/09/04 07:54:32;;;;;;;14.90;9.27;;;;;;;21.63;62.49;101729.66;5092405;28;20024;-67
2021/09/04 07:56:58;;;;;;;14.63;8.75;;;;;;;21.64;62.28;101729.47;5091033;28;20047;-68
2021/09/04 07:59:23;;;;;;;14.73;8.85;;;;;;;21.66;62.63;101729.28;5090263;28;20106;-68
2021/09/04 08:01:49;;;;;;;18.42;9.68;;;;;;;21.64;62.50;101729.47;5087601;28;20040;-67
2021/09/04 08:04:14;;;;;;;14.77;9.15;;;;;;;21.65;62.25;101727.63;5088552;28;20093;-67
2021/09/04 08:06:40;;;;;;;14.15;8.70;;;;;;;21.66;62.25;101729.28;5088389;28;20027;-67
2021/09/04 08:09:05;;;;;;;14.65;8.45;;;;;;;21.66;62.64;101730.13;5070336;28;20040;-67
2021/09/04 08:11:31;;;;;;;17.42;9.35;;;;;;;21.67;62.56;101726.41;5088668;28;20071;-67
2021/09/04 08:13:57;;;;;;;14.95;8.60;;;;;;;21.67;62.46;101734.44;5088000;28;20475;-68
2021/09/04 08:16:22;;;;;;;16.67;9.15;;;;;;;21.69;62.58;101736.91;5070387;28;20089;-68
2021/09/04 08:18:48;;;;;;;15.15;9.18;;;;;;;21.68;62.67;101736.09;5088613;28;20531;-68
2021/09/04 08:21:13;;;;;;;14.65;9.48;;;;;;;21.68;62.68;101728.06;5087823;28;20126;-69
2021/09/04 08:23:39;;;;;;;14.80;9.95;;;;;;;21.68;62.30;101736.09;5053400;28;20028;-67
2021/09/04 08:26:04;;;;;;;17.00;9.23;;;;;;;21.69;62.30;101728.91;5069569;28;20503;-68
2021/09/04 08:28:30;;;;;;;15.57;9.98;;;;;;;21.69;62.14;101718.22;5087403;28;20028;-68
2021/09/04 08:30:55;;;;;;;14.27;9.68;;;;;;;21.68;62.30;101722.72;5087905;28;20043;-68
2021/09/04 08:33:21;;;;;;;15.30;9.02;;;;;;;21.69;62.52;101731.56;5087609;28;20044;-68
2021/09/04 08:35:46;;;;;;;16.50;10.02;;;;;;;21.69;62.03;101728.91;5086620;28;20031;-68
2021/09/04 08:38:12;;;;;;;18.27;9.77;;;;;;;21.68;62.43;101725.41;5069162;28;20032;-73
2021/09/04 08:40:42;;;;;;;18.13;10.27;;;;;;;21.68;62.31;101729.91;5069299;28;20044;-68
2021/09/04 08:43:09;;;;;;;18.85;9.95;;;;;;;21.68;62.60;101738.75;5087993;28;20035;-68
2021/09/04 08:45:35;;;;;;;22.52;11.57;;;;;;;21.69;62.61;101737.75;5078235;28;20027;-68
2021/09/04 08:48:01;;;;;;;19.58;10.63;;;;;;;21.69;62.49;101736.91;5088582;28;20040;-68
2021/09/04 08:50:27;;;;;;;17.48;10.65;;;;;;;21.68;62.12;101738.75;5087482;28;20094;-68
2021/09/04 08:52:53;;;;;;;18.00;11.38;;;;;;;21.67;62.32;101742.44;5088135;28;20461;-68
2021/09/04 08:55:19;;;;;;;19.30;11.50;;;;;;;21.66;62.06;101742.63;5087907;28;20035;-68
2021/09/04 08:57:45;;;;;;;20.65;11.43;;;;;;;21.65;62.30;101746.31;5087763;28;20039;-65
2021/09/04 09:00:11;;;;;;;17.35;10.90;;;;;;;21.64;61.93;101739.34;5086797;28;20478;-67
2021/09/04 09:02:37;;;;;;;17.73;10.52;;;;;;;21.65;61.80;101749.00;5087626;28;20385;-67
2021/09/04 09:05:06;;;;;;;18.67;12.27;;;;;;;21.63;62.01;101746.50;5069158;28;20062;-67
2021/09/04 09:07:46;;;;;;;19.63;11.52;;;;;;;21.59;62.23;101736.38;5086658;28;20067;-65
2021/09/04 09:10:21;;;;;;;21.02;11.80;;;;;;;21.59;61.90;101744.38;5087630;28;20112;-67
2021/09/04 09:12:47;;;;;;;27.48;11.18;;;;;;;21.61;61.62;101740.50;5085557;28;20060;-66
2021/09/04 09:15:24;;;;;;;20.20;11.27;;;;;;;21.58;61.71;101746.22;5086301;28;20036;-66
2021/09/04 09:18:14;;;;;;;18.67;11.13;;;;;;;21.58;61.79;101740.06;5087618;28;20211;-67
2021/09/04 09:20:55;;;;;;;15.25;9.95;;;;;;;21.60;61.60;101744.19;5086874;28;20496;-67
2021/09/04 09:23:22;;;;;;;16.25;10.27;;;;;;;21.59;61.77;101742.53;5069226;28;20398;-66
2021/09/04 09:25:48;;;;;;;18.23;10.35;;;;;;;21.59;61.36;101733.69;5087308;28;20043;-67
2021/09/04 09:28:18;;;;;;;17.38;10.40;;;;;;;21.58;61.31;101735.53;5086993;28;20028;-67
2021/09/04 09:30:49;;;;;;;18.73;10.88;;;;;;;21.56;61.40;101734.91;5087427;28;20043;-67
2021/09/04 09:33:17;;;;;;;16.42;9.75;;;;;;;21.57;61.18;101722.38;5087234;28;20047;-68
2021/09/04 09:35:54;;;;;;;17.48;10.55;;;;;;;21.56;61.34;101721.56;5087439;28;20031;-67
2021/09/04 09:38:28;;;;;;;18.08;10.63;;;;;;;21.55;61.16;101721.75;5089823;28;20062;-68
2021/09/04 09:40:55;;;;;;;19.75;10.05;;;;;;;21.56;61.41;101726.91;5088750;28;20554;-67
2021/09/04 09:43:23;;;;;;;12.88;9.00;;;;;;;21.56;61.06;101723.41;5089454;28;20122;-67
2021/09/04 09:46:03;;;;;;;17.10;10.82;;;;;;;21.52;61.17;101723.78;5090056;28;20032;-67
2021/09/04 09:48:33;;;;;;;18.08;10.18;;;;;;;21.55;61.51;101717.25;5088772;28;20421;-67
2021/09/04 09:51:01;;;;;;;17.27;10.25;;;;;;;21.53;61.09;101721.94;5088558;28;20038;-67
2021/09/04 09:53:28;;;;;;;19.33;10.90;;;;;;;21.53;61.14;101721.94;5088782;28;20031;-67
2021/09/04 09:55:55;;;;;;;16.33;10.38;;;;;;;21.53;61.44;101724.63;5089896;28;20036;-66
2021/09/04 09:58:22;;;;;;;16.73;11.20;;;;;;;21.53;61.34;101721.94;5070917;28;20039;-67
2021/09/04 10:00:49;;;;;;;16.08;10.10;;;;;;;21.52;61.14;101717.63;5088849;28;20032;-66
2021/09/04 10:03:15;;;;;;;20.38;10.70;;;;;;;21.52;61.21;101725.63;5072061;28;20150;-67
2021/09/04 10:05:41;;;;;;;16.52;10.48;;;;;;;21.51;61.20;101735.47;5071022;28;20110;-67
2021/09/04 10:08:07;;;;;;;16.33;9.48;;;;;;;21.50;61.16;101722.31;5089797;28;20039;-67
2021/09/04 10:10:40;;;;;;;15.05;9.80;;;;;;;21.48;61.17;101735.88;5089634;28;20028;-67
2021/09/04 10:13:06;;;;;;;14.63;9.73;;;;;;;21.49;61.37;101731.34;5089338;28;20036;-67
2021/09/04 10:15:35;;;;;;;15.95;10.45;;;;;;;21.48;61.30;101730.53;5089879;28;20059;-67
2021/09/04 10:18:03;;;;;;;16.23;10.50;;;;;;;21.48;61.43;101730.53;5071488;28;20530;-67
2021/09/04 10:20:30;;;;;;;16.08;9.90;;;;;;;21.47;61.10;101723.53;5071023;28;20036;-68
2021/09/04 10:22:57;;;;;;;19.30;10.52;;;;;;;21.45;61.33;101724.72;5089313;28;20101;-67
2021/09/04 10:25:23;;;;;;;16.33;9.90;;;;;;;21.44;61.48;101721.22;5090380;28;20043;-66
2021/09/04 10:27:56;;;;;;;21.40;10.02;;;;;;;21.43;61.36;101724.91;5089168;28;20036;-66
2021/09/04 10:30:28;;;;;;;20.05;10.23;;;;;;;21.42;61.87;101717.06;5089899;28;20092;-71
2021/09/04 10:32:59;;;;;;;15.35;10.18;;;;;;;21.42;61.71;101706.41;5078665;28;20036;-66
2021/09/04 10:35:53;;;;;;;18.92;10.27;;;;;;;21.37;62.17;101712.31;5086099;28;20024;-64
2021/09/04 10:38:18;;;;;;;20.00;10.00;;;;;;;21.42;61.71;101711.75;5086850;28;20039;-67
2021/09/04 10:40:46;;;;;;;20.42;11.38;;;;;;;21.44;61.81;101705.19;5088361;28;20048;-67
2021/09/04 10:43:14;;;;;;;17.40;9.93;;;;;;;21.44;61.94;101707.88;5076061;28;20036;-67
2021/09/04 10:45:42;;;;;;;21.08;9.65;;;;;;;21.43;61.87;101702.72;5088137;28;20056;-67
2021/09/04 10:48:19;;;;;;;17.27;10.20;;;;;;;21.39;61.87;101699.59;5074299;28;20032;-67
2021/09/04 10:51:02;;;;;;;22.27;10.43;;;;;;;21.35;62.35;101700.16;5078915;28;20506;-67
2021/09/04 10:53:54;;;;;;;20.42;10.93;;;;;;;21.32;62.35;101700.56;5089010;28;20467;-67
2021/09/04 10:56:25;;;;;;;18.65;10.15;;;;;;;21.35;62.07;101694.84;5086533;28;20051;-67
2021/09/04 10:58:52;;;;;;;20.05;10.05;;;;;;;21.35;62.11;101694.84;5089256;28;20039;-67
2021/09/04 11:01:24;;;;;;;17.10;9.68;;;;;;;21.37;62.03;101692.78;5088896;28;20028;-67
2021/09/04 11:03:55;;;;;;;17.42;10.18;;;;;;;21.37;62.33;101696.28;5075493;28;20016;-67
2021/09/04 11:06:23;;;;;;;17.52;9.48;;;;;;;21.38;62.17;101694.44;5088929;28;20020;-67
2021/09/04 11:08:49;;;;;;;16.25;9.30;;;;;;;21.39;62.31;101694.25;5088746;28;20443;-67
2021/09/04 11:11:25;;;;;;;17.08;10.38;;;;;;;21.38;62.04;101686.44;5088974;28;20043;-67
2021/09/04 11:13:52;;;;;;;22.15;9.57;;;;;;;21.39;62.40;101696.94;5088960;28;20443;-67